Granite Quarry, North Carolina
Current Conditions -  °F | °C
As of 4:55 PM on Monday 20 Oct 2014 (Local Time) from KRUQ Reporting Station
Clear Clear  
Wind Chill: 67°   Ceiling: Unl
Heat Index: 67°   Visibility: 10mi
Dew Point: 49°   Wind: 6mph
Humidity: 51%   Direction: 230°SW
Pressure: 29.99"   Gusts: NA
Location:  35.61°N, 80.45°W
Report Text: KRUQ 202055Z AUTO 23005KT 10SM CLR 20/09 A2999 RMK AO2 T01970093
Loading
Personal Weather Stations






























Interactive Weather Map New forecast layout! Learn more

10-Day Weather Forecast

Advertisements
Track Severe Weather on mobile